SBOSBO NCE / LFMN
Speedbird OnlineSpeedbird Online NCE / LFMN

Nice Cote d Azur Airport
02:55 5.6°C

Location Nice, France
Latitude: 43.6584014893
Longitude: 7.215869903560001
Web Wikipedia
Altitude 4 Meter / 12 Feet
Distance 1,020 KM / 634 Miles
from London.
Time Zone UTC +1 hours (Europe/Paris)
Codes IATA: NCE
ICAO: LFMN
Currency £1 equals EUR 1.14
Runways
RunwayLength (m)Surface
04L2628Asphalt
04R2963Asphalt
22L2963Asphalt
22R2628Asphalt
Radio
TypeDescriptionFrequency
A/DNICE APP124.175
ATISNICE ATIS129.6
GNDNICE GND121.775
TWRNICE TWR118.7
Live ATC
METAR LFMN 270130Z 34007KT CAVOK 05/M01 Q1009 NOSIG
TAF TAF LFMN 262000Z 2621/2803 34010KT CAVOK BECMG 2710/2712 20008KT SCT040 BECMG 2716/2719 34010KT CAVOK
Weather As Of 27 Jan 2023 02:55
Description Clear sky
Wind 13 km/h from North (340°)
Cloud Cover 0%
Precipitation Rain: none, Snow: none
Sunrise 07:53
Sunset 17:34
Lounges The Canopy VIP Lounge, Terminal 1
The Library Vip Lounge, Terminal 1
Infinity Lounge , Terminal 2
Rotations During the last 90 days there were
344 flights from LHR
59 flights from LGW
3 flights from LCY
345 flights to LHR
57 flights to LGW
3 flights to LCY



Support Speedbird Online

© 2017-2023 Speedbird Online